METAR Data

Data at: 1209 UTC 24 May 2022

METAR for:KBML (Berlin Muni, NH, US)
Text:KBML 241152Z AUTO 00000KT 10SM CLR 05/03 A3038 RMK AO2 SLP297 I6001 T00500028 10050 20000 51007
Temperature: 5.0°C ( 41°F)
Dewpoint: 2.8°C ( 37°F) [RH = 86%]
Pressure (altimeter):30.38 inches Hg (1028.9 mb) [Sea level pressure: 1029.7 mb]
Winds:calm
Visibility:10 or more sm (16+ km)
Ceiling:at least 12,000 feet AGL
Clouds:sky clear below 12,000 feet AGL
QC Flag:automated observation with no human augmentation